Jj Sky — VRJA6 — position and weather

sailwx.info

Track history (hours):
 
Tides and Currents Weather Stations Pressure Air Temp Water Temp Dewpoint Dewpoint Depression Visibility Wind Speed Wind Dir Waves Ship Positions

Jj Sky

Last reported at 2015-Aug-28 12:33 UTC. Time now 2015-Aug-28 12:47 UTC.
Position N 31°20' E 121°40'.

Length 148 m.

MMSI: 477397500.

Date/timePositionNaut miles runAvg speedWind from/ knotsBaromVisibWave heightAir tempDewpointWater temp
2015-Aug-28 12:33N 31°20' E 121°40'0 0.0
2015-Aug-28 11:33N 31°20' E 121°40'0 0.0
2015-Aug-28 10:33N 31°20' E 121°40'0 0.0
2015-Aug-28 09:33N 31°20' E 121°40'0 0.0
2015-Aug-28 08:33N 31°20' E 121°40'0 0.0
2015-Aug-28 07:33N 31°20' E 121°40'431 9.7
2015-Aug-26 11:14N 33°37' E 129°45'1115.6
2015-Aug-26 10:33N 33°42' E 129°57'1615.6
2015-Aug-26 09:33N 33°50' E 130°13'1515.5
2015-Aug-26 08:33N 33°58' E 130°29'1514.9
2015-Aug-26 07:33N 34°02' E 130°45'20212.4
2015-Aug-25 15:19N 34°33' E 134°47'1013.3
2015-Aug-25 14:33N 34°38' E 134°59'1312.7
2015-Aug-25 13:33N 34°33' E 135°13'3 2.3
2015-Aug-25 12:11N 34°32' E 135°16'0 0.0
2015-Aug-25 09:28N 34°32' E 135°16'0 0.0
2015-Aug-25 06:17N 34°32' E 135°16'0 0.1
2015-Aug-25 05:22N 34°32' E 135°16'0 0.1
2015-Aug-25 04:22N 34°32' E 135°16'0 0.1
2015-Aug-25 03:33N 34°32' E 135°16'0 0.0
2015-Aug-25 01:34N 34°32' E 135°16'7 7.3
2015-Aug-25 00:33N 34°39' E 135°16'1 0.8
2015-Aug-24 23:23N 34°39' E 135°15'0 0.1
2015-Aug-24 22:28N 34°39' E 135°15'0 0.0
2015-Aug-24 21:04N 34°39' E 135°15'0 0.0
2015-Aug-24 20:22N 34°39' E 135°15'0 0.1
2015-Aug-24 19:33N 34°39' E 135°15'0 0.1
2015-Aug-24 18:33N 34°39' E 135°15'0 0.0
2015-Aug-24 17:32N 34°39' E 135°15'0 0.1
2015-Aug-24 16:33N 34°39' E 135°15'0 0.0
2015-Aug-24 15:31N 34°39' E 135°15'0 0.1
2015-Aug-24 14:25N 34°39' E 135°15'0 0.1
2015-Aug-24 13:31N 34°39' E 135°15'0 0.4
2015-Aug-24 12:33N 34°39' E 135°15'8 6.0
2015-Aug-24 11:18N 34°39' E 135°24'0 0.0
2015-Aug-24 08:05N 34°39' E 135°24'0 0.0
2015-Aug-24 06:28N 34°39' E 135°24'0 0.1
2015-Aug-24 05:33N 34°39' E 135°24'0 0.0
2015-Aug-24 02:22N 34°39' E 135°24'0 0.0
2015-Aug-24 01:25N 34°39' E 135°24'0 0.1
2015-Aug-24 00:24N 34°39' E 135°24'0 0.1
2015-Aug-23 23:29N 34°39' E 135°24'0 0.1
2015-Aug-23 22:29N 34°39' E 135°24'0 0.1
2015-Aug-23 21:33N 34°39' E 135°24'1010.0
2015-Aug-23 20:33N 34°32' E 135°15'7 6.9
2015-Aug-23 19:32N 34°33' E 135°07'9 9.2
2015-Aug-23 18:33N 34°36' E 134°57'24012.6
2015-Aug-22 23:28N 33°50' E 130°11'1816.7
2015-Aug-22 22:24N 33°41' E 129°53'40715.6
2015-Aug-21 20:20N 30°60' E 122°30'1114.8
2015-Aug-21 19:33N 31°02' E 122°17'1110.7
2015-Aug-21 18:33N 31°04' E 122°05'1010.5
2015-Aug-21 17:33N 31°08' E 121°54'1312.8
2015-Aug-21 16:33N 31°18' E 121°44'4 3.7
2015-Aug-21 15:32N 31°20' E 121°40'0 0.0
2015-Aug-21 14:32N 31°20' E 121°40'0 0.0
2015-Aug-21 13:30N 31°20' E 121°40'0 0.0
2015-Aug-21 12:31N 31°20' E 121°40'0 0.0
2015-Aug-21 11:31N 31°20' E 121°40'0 0.0
2015-Aug-21 10:33N 31°20' E 121°40'0 0.0
2015-Aug-21 09:33N 31°20' E 121°40'0 0.0
2015-Aug-21 08:29N 31°20' E 121°40'0 0.0
2015-Aug-21 07:32N 31°20' E 121°40'0 0.0
2015-Aug-21 06:26N 31°20' E 121°40'0 0.0
2015-Aug-21 05:31N 31°20' E 121°40'0 0.1
2015-Aug-21 04:33N 31°20' E 121°40'9 9.2
2015-Aug-21 03:33N 31°17' E 121°50'1312.8
2015-Aug-21 02:33N 31°14' E 122°05'1111.2
2015-Aug-21 01:33N 31°08' E 122°16'21 1.6
2015-Aug-20 12:06N 30°55' E 122°36'0 0.0
2015-Aug-20 11:33N 30°55' E 122°36'0 0.0
2015-Aug-20 10:33N 30°55' E 122°36'0 0.1
2015-Aug-20 09:33N 30°55' E 122°36'0 0.0
2015-Aug-20 08:05N 30°55' E 122°36'0 0.0
2015-Aug-20 07:33N 30°55' E 122°36'127 7.9
2015-Aug-19 15:29N 32°04' E 124°41'32515.3
2015-Aug-18 18:19N 34°03' E 130°42'  
Track history (hours):
 
Tides and Currents Weather Stations Pressure Air Temp Water Temp Dewpoint Dewpoint Depression Visibility Wind Speed Wind Dir Waves Ship Positions

Jj Sky

Last reported at 2015-Aug-28 12:33 UTC. Time now 2015-Aug-28 12:47 UTC.
Position N 31°20' E 121°40'.

Length 148 m.

MMSI: 477397500.

Date/timePositionNaut miles runAvg speedWind from/ knotsBaromVisibWave heightAir tempDewpointWater temp
2015-Aug-28 12:33N 31°20' E 121°40'0 0.0
2015-Aug-28 11:33N 31°20' E 121°40'0 0.0
2015-Aug-28 10:33N 31°20' E 121°40'0 0.0
2015-Aug-28 09:33N 31°20' E 121°40'0 0.0
2015-Aug-28 08:33N 31°20' E 121°40'0 0.0
2015-Aug-28 07:33N 31°20' E 121°40'431 9.7
2015-Aug-26 11:14N 33°37' E 129°45'1115.6
2015-Aug-26 10:33N 33°42' E 129°57'1615.6
2015-Aug-26 09:33N 33°50' E 130°13'1515.5
2015-Aug-26 08:33N 33°58' E 130°29'1514.9
2015-Aug-26 07:33N 34°02' E 130°45'20212.4
2015-Aug-25 15:19N 34°33' E 134°47'1013.3
2015-Aug-25 14:33N 34°38' E 134°59'1312.7
2015-Aug-25 13:33N 34°33' E 135°13'3 2.3
2015-Aug-25 12:11N 34°32' E 135°16'0 0.0
2015-Aug-25 09:28N 34°32' E 135°16'0 0.0
2015-Aug-25 06:17N 34°32' E 135°16'0 0.1
2015-Aug-25 05:22N 34°32' E 135°16'0 0.1
2015-Aug-25 04:22N 34°32' E 135°16'0 0.1
2015-Aug-25 03:33N 34°32' E 135°16'0 0.0
2015-Aug-25 01:34N 34°32' E 135°16'7 7.3
2015-Aug-25 00:33N 34°39' E 135°16'1 0.8
2015-Aug-24 23:23N 34°39' E 135°15'0 0.1
2015-Aug-24 22:28N 34°39' E 135°15'0 0.0
2015-Aug-24 21:04N 34°39' E 135°15'0 0.0
2015-Aug-24 20:22N 34°39' E 135°15'0 0.1
2015-Aug-24 19:33N 34°39' E 135°15'0 0.1
2015-Aug-24 18:33N 34°39' E 135°15'0 0.0
2015-Aug-24 17:32N 34°39' E 135°15'0 0.1
2015-Aug-24 16:33N 34°39' E 135°15'0 0.0
2015-Aug-24 15:31N 34°39' E 135°15'0 0.1
2015-Aug-24 14:25N 34°39' E 135°15'0 0.1
2015-Aug-24 13:31N 34°39' E 135°15'0 0.4
2015-Aug-24 12:33N 34°39' E 135°15'8 6.0
2015-Aug-24 11:18N 34°39' E 135°24'0 0.0
2015-Aug-24 08:05N 34°39' E 135°24'0 0.0
2015-Aug-24 06:28N 34°39' E 135°24'0 0.1
2015-Aug-24 05:33N 34°39' E 135°24'0 0.0
2015-Aug-24 02:22N 34°39' E 135°24'0 0.0
2015-Aug-24 01:25N 34°39' E 135°24'0 0.1
2015-Aug-24 00:24N 34°39' E 135°24'0 0.1
2015-Aug-23 23:29N 34°39' E 135°24'0 0.1
2015-Aug-23 22:29N 34°39' E 135°24'0 0.1
2015-Aug-23 21:33N 34°39' E 135°24'1010.0
2015-Aug-23 20:33N 34°32' E 135°15'7 6.9
2015-Aug-23 19:32N 34°33' E 135°07'9 9.2
2015-Aug-23 18:33N 34°36' E 134°57'24012.6
2015-Aug-22 23:28N 33°50' E 130°11'1816.7
2015-Aug-22 22:24N 33°41' E 129°53'40715.6
2015-Aug-21 20:20N 30°60' E 122°30'1114.8
2015-Aug-21 19:33N 31°02' E 122°17'1110.7
2015-Aug-21 18:33N 31°04' E 122°05'1010.5
2015-Aug-21 17:33N 31°08' E 121°54'1312.8
2015-Aug-21 16:33N 31°18' E 121°44'4 3.7
2015-Aug-21 15:32N 31°20' E 121°40'0 0.0
2015-Aug-21 14:32N 31°20' E 121°40'0 0.0
2015-Aug-21 13:30N 31°20' E 121°40'0 0.0
2015-Aug-21 12:31N 31°20' E 121°40'0 0.0
2015-Aug-21 11:31N 31°20' E 121°40'0 0.0
2015-Aug-21 10:33N 31°20' E 121°40'0 0.0
2015-Aug-21 09:33N 31°20' E 121°40'0 0.0
2015-Aug-21 08:29N 31°20' E 121°40'0 0.0
2015-Aug-21 07:32N 31°20' E 121°40'0 0.0
2015-Aug-21 06:26N 31°20' E 121°40'0 0.0
2015-Aug-21 05:31N 31°20' E 121°40'0 0.1
2015-Aug-21 04:33N 31°20' E 121°40'9 9.2
2015-Aug-21 03:33N 31°17' E 121°50'1312.8
2015-Aug-21 02:33N 31°14' E 122°05'1111.2
2015-Aug-21 01:33N 31°08' E 122°16'21 1.6
2015-Aug-20 12:06N 30°55' E 122°36'0 0.0
2015-Aug-20 11:33N 30°55' E 122°36'0 0.0
2015-Aug-20 10:33N 30°55' E 122°36'0 0.1
2015-Aug-20 09:33N 30°55' E 122°36'0 0.0
2015-Aug-20 08:05N 30°55' E 122°36'0 0.0
2015-Aug-20 07:33N 30°55' E 122°36'127 7.9
2015-Aug-19 15:29N 32°04' E 124°41'32515.3
2015-Aug-18 18:19N 34°03' E 130°42'  

Dump ship's entire track history